createdAt,value
2018-02-08T00:00:13.688Z,76.95
2018-02-08T00:01:16.230Z,75.70
2018-02-08T00:02:18.738Z,75.70
2018-02-08T00:03:21.228Z,78.10
2018-02-08T00:04:23.735Z,79.55
2018-02-08T00:05:26.210Z,77.95
2018-02-08T00:06:28.678Z,74.97
2018-02-08T00:07:31.160Z,78.20
2018-02-08T00:08:33.653Z,87.82
2018-02-08T00:09:36.122Z,74.95
2018-02-08T00:10:38.606Z,83.18
2018-02-08T00:11:41.080Z,85.80
2018-02-08T00:12:43.568Z,67.65
2018-02-08T00:13:46.045Z,67.50
2018-02-08T00:14:48.529Z,69.32
2018-02-08T00:15:50.998Z,70.28
2018-02-08T00:16:53.476Z,78.20
2018-02-08T00:17:55.964Z,67.15
2018-02-08T00:18:58.449Z,76.68
2018-02-08T00:20:00.964Z,74.28
2018-02-08T00:21:03.438Z,75.82
2018-02-08T00:22:05.983Z,70.18
2018-02-08T00:23:08.488Z,67.70
2018-02-08T00:24:10.958Z,69.15
2018-02-08T00:25:13.444Z,76.10
2018-02-08T00:26:15.919Z,77.15
2018-02-08T00:27:18.402Z,69.32
2018-02-08T00:28:20.889Z,80.25
2018-02-08T00:29:23.401Z,66.40
2018-02-08T00:30:25.904Z,72.18
2018-02-08T00:31:28.386Z,75.03
2018-02-08T00:32:30.884Z,73.68
2018-02-08T00:33:33.357Z,68.20
2018-02-08T00:34:35.826Z,75.10
2018-02-08T00:35:38.309Z,75.53
2018-02-08T00:36:40.797Z,67.10
2018-02-08T00:37:43.293Z,67.10
2018-02-08T00:38:45.763Z,70.70
2018-02-08T00:39:48.231Z,73.10
2018-02-08T00:40:50.707Z,78.80
2018-02-08T00:41:53.178Z,78.12
2018-02-08T00:42:55.665Z,69.90
2018-02-08T00:43:58.168Z,74.72
2018-02-08T00:45:00.656Z,77.90
2018-02-08T00:46:03.144Z,76.87
2018-02-08T00:47:05.637Z,83.78
2018-02-08T00:48:08.107Z,78.82
2018-02-08T00:49:10.598Z,85.05
2018-02-08T00:50:13.070Z,82.43
2018-02-08T00:51:15.546Z,71.07
2018-02-08T00:52:18.054Z,68.37
2018-02-08T00:53:20.541Z,65.40
2018-02-08T00:54:23.031Z,78.35
2018-02-08T00:55:25.519Z,71.45
2018-02-08T00:56:27.986Z,70.68
2018-02-08T00:57:30.455Z,78.35
2018-02-08T00:58:32.950Z,68.85
2018-02-08T00:59:35.438Z,72.57
2018-02-08T01:00:37.925Z,75.70
2018-02-08T01:01:40.412Z,74.22
2018-02-08T01:02:42.892Z,64.55
2018-02-08T01:03:45.373Z,71.10
2018-02-08T01:04:47.843Z,76.70
2018-02-08T01:05:50.314Z,71.95
2018-02-08T01:06:52.794Z,68.00
2018-02-08T01:07:55.274Z,74.28
2018-02-08T01:08:57.765Z,74.47
2018-02-08T01:10:00.252Z,71.47
2018-02-08T01:11:02.741Z,66.45
2018-02-08T01:12:05.216Z,81.65
2018-02-08T01:13:07.718Z,73.93
2018-02-08T01:14:10.200Z,80.47
2018-02-08T01:15:12.685Z,76.70
2018-02-08T01:16:15.178Z,73.50
2018-02-08T01:17:17.691Z,74.60
2018-02-08T01:18:20.175Z,68.90
2018-02-08T01:19:22.645Z,70.55
2018-02-08T01:20:25.125Z,75.05
2018-02-08T01:21:27.599Z,74.80
2018-02-08T01:22:30.075Z,74.45
2018-02-08T01:23:32.546Z,72.40
2018-02-08T01:24:35.041Z,70.20
2018-02-08T01:25:37.528Z,69.25
2018-02-08T01:26:40.016Z,72.97
2018-02-08T01:27:42.509Z,64.55
2018-02-08T01:28:44.982Z,90.68
2018-02-08T01:29:47.497Z,83.55
2018-02-08T01:30:49.965Z,76.95
2018-02-08T01:31:52.504Z,65.47
2018-02-08T01:32:54.958Z,71.32
2018-02-08T01:33:57.435Z,75.55
2018-02-08T01:34:59.914Z,75.40
2018-02-08T01:36:02.409Z,69.93
2018-02-08T01:37:04.881Z,76.87
2018-02-08T01:38:07.354Z,67.32
2018-02-08T01:39:09.832Z,73.95
2018-02-08T01:40:12.312Z,70.60
2018-02-08T01:41:14.791Z,80.90
2018-02-08T01:42:17.258Z,77.22
2018-02-08T01:43:19.747Z,81.05
2018-02-08T01:44:22.236Z,78.70
2018-02-08T01:45:24.717Z,82.45
2018-02-08T01:46:27.207Z,72.07
2018-02-08T01:47:29.687Z,80.53
2018-02-08T01:48:32.159Z,76.50
2018-02-08T01:49:45.533Z,74.20
2018-02-08T01:50:48.017Z,68.65
2018-02-08T01:51:50.490Z,73.32
2018-02-08T01:52:52.962Z,77.65
2018-02-08T01:53:55.436Z,78.43
2018-02-08T01:54:58.030Z,79.37
2018-02-08T01:56:00.499Z,65.55
2018-02-08T01:57:03.016Z,69.50
2018-02-08T01:58:05.509Z,70.20
2018-02-08T01:59:07.978Z,69.90
2018-02-08T02:00:10.473Z,63.55
2018-02-08T02:01:12.946Z,77.10
2018-02-08T02:02:15.439Z,70.22
2018-02-08T02:03:17.936Z,72.80
2018-02-08T02:04:20.411Z,72.05
2018-02-08T02:05:22.894Z,70.43
2018-02-08T02:06:25.381Z,75.20
2018-02-08T02:07:27.850Z,70.25
2018-02-08T02:08:30.338Z,68.00
2018-02-08T02:09:32.807Z,70.07
2018-02-08T02:10:35.293Z,65.85
2018-02-08T02:11:37.784Z,70.53
2018-02-08T02:12:40.255Z,72.28
2018-02-08T02:13:42.719Z,68.28
2018-02-08T02:14:45.191Z,70.50
2018-02-08T02:15:47.668Z,73.20
2018-02-08T02:16:50.153Z,73.20
2018-02-08T02:17:52.623Z,66.53
2018-02-08T02:18:55.141Z,70.05
2018-02-08T02:19:57.658Z,61.47
2018-02-08T02:21:00.189Z,64.53
2018-02-08T02:22:02.660Z,67.35
2018-02-08T02:23:05.127Z,70.12
2018-02-08T02:24:07.595Z,79.70
2018-02-08T02:25:10.078Z,64.28
2018-02-08T02:26:12.585Z,68.07
2018-02-08T02:27:15.073Z,71.47
2018-02-08T02:28:17.542Z,75.28
2018-02-08T02:29:20.045Z,68.57
2018-02-08T02:30:22.538Z,69.75
2018-02-08T02:31:25.074Z,77.40
2018-02-08T02:32:27.547Z,72.05
2018-02-08T02:33:30.029Z,67.93
2018-02-08T02:34:32.503Z,71.53
2018-02-08T02:35:35.001Z,90.12
2018-02-08T02:36:37.470Z,68.15
2018-02-08T02:37:39.953Z,65.53
2018-02-08T02:38:42.477Z,93.70
2018-02-08T02:39:44.969Z,79.75
2018-02-08T02:40:47.442Z,71.50
2018-02-08T02:41:49.915Z,75.60
2018-02-08T02:42:52.392Z,74.20
2018-02-08T02:43:54.916Z,73.25
2018-02-08T02:44:57.364Z,77.00
2018-02-08T02:45:59.834Z,84.45
2018-02-08T02:47:02.328Z,71.53
2018-02-08T02:48:04.809Z,70.55
2018-02-08T02:49:07.294Z,79.22
2018-02-08T02:50:09.816Z,70.72
2018-02-08T02:51:12.310Z,76.20
2018-02-08T02:52:14.801Z,77.50
2018-02-08T02:53:17.302Z,75.75
2018-02-08T02:54:19.790Z,77.32
2018-02-08T02:55:22.273Z,67.03
2018-02-08T02:56:24.751Z,68.03
2018-02-08T02:57:27.237Z,83.70
2018-02-08T02:58:29.713Z,73.15
2018-02-08T02:59:32.213Z,75.28
2018-02-08T03:00:34.683Z,76.90
2018-02-08T03:01:37.160Z,79.32
2018-02-08T03:02:39.660Z,72.20
2018-02-08T03:03:42.132Z,73.70
2018-02-08T03:04:44.620Z,78.78
2018-02-08T03:05:47.114Z,75.03
2018-02-08T03:06:49.588Z,72.80
2018-02-08T03:07:52.063Z,72.45
2018-02-08T03:08:54.544Z,78.12
2018-02-08T03:09:57.037Z,76.12
2018-02-08T03:10:59.528Z,73.65
2018-02-08T03:12:02.009Z,72.32
2018-02-08T03:13:04.506Z,68.60
2018-02-08T03:14:06.975Z,78.25
2018-02-08T03:15:09.443Z,72.32
2018-02-08T03:16:11.918Z,75.40
2018-02-08T03:17:14.396Z,85.65
2018-02-08T03:18:16.862Z,71.80
2018-02-08T03:19:19.343Z,70.82
2018-02-08T03:20:21.848Z,73.90
2018-02-08T03:21:24.322Z,68.30
2018-02-08T03:22:26.813Z,63.75
2018-02-08T03:23:29.548Z,79.07
2018-02-08T03:24:32.085Z,68.87
2018-02-08T03:25:34.568Z,81.03
2018-02-08T03:26:37.042Z,89.40
2018-02-08T03:27:39.533Z,80.95
2018-02-08T03:28:42.022Z,78.05
2018-02-08T03:29:44.498Z,82.57
2018-02-08T03:30:47.471Z,76.28
2018-02-08T03:31:49.971Z,76.40
2018-02-08T03:32:52.447Z,84.28
2018-02-08T03:33:54.942Z,80.53
2018-02-08T03:34:57.433Z,70.05
2018-02-08T03:35:59.927Z,72.47
2018-02-08T03:37:02.420Z,70.32
2018-02-08T03:38:04.904Z,92.15
2018-02-08T03:39:07.375Z,79.95
2018-02-08T03:40:09.853Z,74.28
2018-02-08T03:41:12.344Z,71.82
2018-02-08T03:42:14.839Z,74.93
2018-02-08T03:43:17.339Z,81.03
2018-02-08T03:44:19.814Z,78.15
2018-02-08T03:45:22.287Z,79.20
2018-02-08T03:46:24.776Z,81.15
2018-02-08T03:47:27.290Z,67.35
2018-02-08T03:48:29.762Z,69.57
2018-02-08T03:49:32.248Z,83.82
2018-02-08T03:50:34.735Z,72.55
2018-02-08T03:51:37.209Z,74.62
2018-02-08T03:52:39.713Z,75.75
2018-02-08T03:53:42.221Z,78.00
2018-02-08T03:54:44.694Z,73.82
2018-02-08T03:55:47.210Z,69.12
2018-02-08T03:56:49.686Z,77.57
2018-02-08T03:57:52.176Z,70.12
2018-02-08T03:58:54.651Z,65.65
2018-02-08T03:59:57.146Z,73.20
2018-02-08T04:00:59.618Z,71.00
2018-02-08T04:02:02.088Z,68.40
2018-02-08T04:03:04.635Z,84.13
2018-02-08T04:04:07.140Z,69.43
2018-02-08T04:05:09.615Z,75.65
2018-02-08T04:06:12.104Z,66.47
2018-02-08T04:07:14.585Z,67.87
2018-02-08T04:08:17.097Z,67.28
2018-02-08T04:09:19.570Z,65.03
2018-02-08T04:10:22.046Z,70.93
2018-02-08T04:11:24.517Z,71.68
2018-02-08T04:12:27.068Z,68.55
2018-02-08T04:13:29.566Z,65.85
2018-02-08T04:14:32.039Z,68.55
2018-02-08T04:15:34.519Z,79.57
2018-02-08T04:16:37.010Z,86.72
2018-02-08T04:17:39.500Z,77.35
2018-02-08T04:18:41.991Z,71.43
2018-02-08T04:19:44.462Z,67.22
2018-02-08T04:20:46.998Z,76.95
2018-02-08T04:21:49.470Z,64.05
2018-02-08T04:22:52.022Z,66.25
2018-02-08T04:23:54.541Z,78.62
2018-02-08T04:24:57.022Z,77.20
2018-02-08T04:25:59.516Z,69.70
2018-02-08T04:27:02.009Z,67.55
2018-02-08T04:28:04.546Z,74.45
2018-02-08T04:29:07.066Z,76.68
2018-02-08T04:30:09.539Z,75.28
2018-02-08T04:31:12.024Z,83.18
2018-02-08T04:32:14.516Z,78.12
2018-02-08T04:33:17.013Z,80.95
2018-02-08T04:34:19.528Z,73.95
2018-02-08T04:35:22.003Z,76.20
2018-02-08T04:36:24.480Z,82.57
2018-02-08T04:37:26.969Z,72.35
2018-02-08T04:38:41.246Z,74.32
2018-02-08T04:39:55.454Z,69.47
2018-02-08T05:23:52.685Z,51.15
2018-02-08T05:24:55.155Z,60.25
2018-02-08T05:25:57.647Z,71.20
2018-02-08T05:27:00.115Z,72.35
2018-02-08T05:28:02.640Z,77.57
2018-02-08T05:29:05.138Z,76.53
2018-02-08T05:30:07.616Z,83.28
2018-02-08T05:31:10.082Z,79.03
2018-02-08T05:32:12.566Z,80.85
2018-02-08T05:33:15.088Z,77.35
2018-02-08T05:34:17.605Z,88.60
2018-02-08T05:35:20.093Z,77.78
2018-02-08T05:36:22.678Z,81.43
2018-02-08T05:37:25.137Z,80.32
2018-02-08T05:38:27.611Z,84.00
2018-02-08T05:39:30.089Z,79.05
2018-02-08T05:40:32.577Z,77.65
2018-02-08T05:41:35.043Z,84.25
2018-02-08T05:42:37.532Z,80.87
2018-02-08T05:43:40.004Z,79.97
2018-02-08T05:44:42.475Z,87.88
2018-02-08T05:45:44.960Z,82.10
2018-02-08T05:46:47.457Z,80.20
2018-02-08T05:47:49.943Z,79.70
2018-02-08T05:48:52.437Z,82.50
2018-02-08T05:49:54.907Z,78.28
2018-02-08T05:50:57.400Z,75.30
2018-02-08T05:51:59.882Z,76.32
2018-02-08T05:53:02.355Z,81.10
2018-02-08T05:54:04.839Z,75.80
2018-02-08T05:55:07.327Z,78.50
2018-02-08T05:56:09.833Z,80.93
2018-02-08T05:57:12.325Z,81.57
2018-02-08T05:58:14.822Z,76.37
2018-02-08T05:59:17.317Z,80.45
2018-02-08T06:00:19.802Z,73.37
2018-02-08T06:01:22.281Z,68.15
2018-02-08T06:02:24.824Z,76.57
2018-02-08T06:03:27.294Z,78.60
2018-02-08T06:04:29.767Z,79.60
2018-02-08T06:05:32.243Z,84.03
2018-02-08T06:06:34.717Z,75.28
2018-02-08T06:07:37.205Z,84.90
2018-02-08T06:08:39.688Z,81.20
2018-02-08T06:09:42.189Z,86.85
2018-02-08T06:10:44.677Z,82.75
2018-02-08T06:11:47.154Z,86.63
2018-02-08T06:12:49.659Z,84.55
2018-02-08T06:13:52.142Z,78.50
2018-02-08T06:14:54.638Z,82.65
2018-02-08T06:15:57.124Z,79.15
2018-02-08T06:16:59.605Z,82.50
2018-02-08T06:18:02.094Z,75.32
2018-02-08T06:19:04.563Z,73.72
2018-02-08T06:20:07.046Z,78.68
2018-02-08T06:21:09.530Z,85.28
2018-02-08T06:22:12.004Z,80.72
2018-02-08T06:23:14.478Z,90.68
2018-02-08T06:24:16.980Z,95.55
2018-02-08T06:25:19.443Z,83.75
2018-02-08T06:26:21.922Z,102.85
2018-02-08T06:27:24.411Z,100.12
2018-02-08T06:28:26.912Z,100.97
2018-02-08T06:29:29.424Z,144.87
2018-02-08T06:30:31.934Z,192.55
2018-02-08T06:31:34.406Z,172.27
2018-02-08T06:32:36.898Z,150.00
2018-02-08T06:33:39.389Z,113.25
2018-02-08T06:34:41.866Z,103.70
2018-02-08T06:35:44.343Z,102.32
2018-02-08T06:36:46.826Z,92.37
2018-02-08T06:37:49.298Z,93.45
2018-02-08T06:38:51.766Z,102.15
2018-02-08T06:39:54.256Z,100.00
2018-02-08T06:40:56.733Z,114.88
2018-02-08T06:42:00.100Z,104.70
2018-02-08T06:43:02.601Z,114.53
2018-02-08T06:44:05.115Z,114.12
2018-02-08T06:45:07.599Z,134.18
2018-02-08T06:46:10.097Z,148.73
2018-02-08T06:47:12.612Z,150.82
2018-02-08T06:48:15.084Z,157.50
2018-02-08T06:49:17.608Z,180.07
2018-02-08T06:50:20.117Z,186.62
2018-02-08T06:51:22.594Z,125.70
2018-02-08T06:52:25.116Z,136.12
2018-02-08T06:53:27.627Z,153.25
2018-02-08T06:54:30.109Z,135.02
2018-02-08T06:55:32.597Z,135.27
2018-02-08T06:56:35.090Z,131.70
2018-02-08T06:57:37.578Z,124.43
2018-02-08T06:58:40.071Z,139.93
2018-02-08T06:59:42.560Z,121.80
2018-02-08T07:00:45.054Z,136.35
2018-02-08T07:01:47.539Z,126.70
2018-02-08T07:02:50.064Z,135.93
2018-02-08T07:03:52.617Z,136.62
2018-02-08T07:04:55.054Z,108.75
2018-02-08T07:05:57.553Z,120.87
2018-02-08T07:07:00.057Z,114.85
2018-02-08T07:08:02.648Z,98.87
2018-02-08T07:09:05.120Z,97.47
2018-02-08T07:10:07.591Z,90.50
2018-02-08T07:11:10.433Z,91.90
2018-02-08T07:12:12.910Z,86.80
2018-02-08T07:13:15.394Z,87.80
2018-02-08T07:14:17.877Z,91.47
2018-02-08T07:15:20.385Z,75.87
2018-02-08T07:16:22.860Z,84.28
2018-02-08T07:17:25.350Z,87.43
2018-02-08T07:18:27.838Z,88.55
2018-02-08T07:19:30.318Z,78.80
2018-02-08T07:20:32.805Z,81.55
2018-02-08T07:21:35.287Z,89.87
2018-02-08T07:22:38.081Z,90.75
2018-02-08T07:23:40.626Z,98.07
2018-02-08T07:24:43.113Z,82.40
2018-02-08T07:25:45.607Z,100.15
2018-02-08T07:26:48.090Z,83.80
2018-02-08T07:27:50.572Z,88.22
2018-02-08T07:28:53.056Z,86.37
2018-02-08T07:29:55.524Z,91.10
2018-02-08T07:30:57.994Z,91.47
2018-02-08T07:32:00.489Z,89.90
2018-02-08T07:33:02.954Z,85.20
2018-02-08T07:34:05.444Z,83.60
2018-02-08T07:35:07.927Z,87.47
2018-02-08T07:36:10.440Z,87.15
2018-02-08T07:37:12.925Z,85.75
2018-02-08T07:38:15.415Z,78.07
2018-02-08T07:39:17.904Z,90.07
2018-02-08T07:40:20.409Z,78.68
2018-02-08T07:41:22.900Z,81.93
2018-02-08T07:42:25.413Z,82.75
2018-02-08T07:43:27.920Z,74.45
2018-02-08T07:44:30.406Z,95.87
2018-02-08T07:45:32.886Z,87.20
2018-02-08T07:46:35.350Z,86.45
2018-02-08T07:47:37.830Z,76.18
2018-02-08T07:48:40.341Z,77.25
2018-02-08T07:49:42.815Z,82.43
2018-02-08T07:50:45.296Z,85.45
2018-02-08T07:51:47.785Z,74.32
2018-02-08T07:52:50.301Z,69.32
2018-02-08T07:53:52.785Z,74.37
2018-02-08T07:54:55.267Z,84.20
2018-02-08T07:55:57.738Z,72.90
2018-02-08T07:57:00.257Z,72.47
2018-02-08T07:58:02.730Z,70.40
2018-02-08T07:59:05.225Z,75.82
2018-02-08T08:00:07.755Z,64.15
2018-02-08T08:01:10.226Z,73.97
2018-02-08T08:02:12.716Z,82.40
2018-02-08T08:03:15.183Z,65.50
2018-02-08T08:04:17.666Z,61.92
2018-02-08T08:05:20.201Z,68.45
2018-02-08T08:06:22.684Z,67.78
2018-02-08T08:07:25.242Z,63.45
2018-02-08T08:08:27.706Z,57.42
2018-02-08T08:09:30.169Z,68.82
2018-02-08T08:10:32.653Z,63.20
2018-02-08T08:11:35.137Z,67.47
2018-02-08T08:12:37.615Z,68.12
2018-02-08T08:13:40.109Z,65.80
2018-02-08T08:14:42.598Z,61.65
2018-02-08T08:15:45.082Z,59.83
2018-02-08T08:16:47.546Z,65.75
2018-02-08T08:17:50.128Z,60.80
2018-02-08T08:18:52.646Z,57.75
2018-02-08T08:19:55.121Z,60.58
2018-02-08T08:20:57.615Z,58.83
2018-02-08T08:22:00.169Z,59.75
2018-02-08T08:23:02.682Z,56.70
2018-02-08T08:24:05.154Z,61.08
2018-02-08T08:25:07.714Z,66.60
2018-02-08T08:26:10.193Z,59.63
2018-02-08T08:27:12.658Z,57.50
2018-02-08T08:28:15.146Z,58.20
2018-02-08T08:29:17.645Z,60.97
2018-02-08T08:30:20.144Z,61.37
2018-02-08T08:31:22.626Z,58.80
2018-02-08T08:32:25.109Z,59.92
2018-02-08T08:33:27.991Z,56.13
2018-02-08T08:34:30.499Z,55.97
2018-02-08T08:35:33.007Z,55.15
2018-02-08T08:36:35.492Z,51.75
2018-02-08T08:37:37.969Z,47.50
2018-02-08T08:38:40.485Z,56.72
2018-02-08T08:39:43.075Z,62.72
2018-02-08T08:40:45.595Z,57.20
2018-02-08T08:41:48.083Z,59.45
2018-02-08T08:42:53.604Z,61.60
2018-02-08T08:43:56.395Z,64.57
2018-02-08T08:44:58.863Z,54.80
2018-02-08T08:46:05.125Z,55.50
2018-02-08T08:47:07.664Z,56.45
2018-02-08T08:48:10.126Z,54.15
2018-02-08T08:49:12.598Z,62.78
2018-02-08T08:50:15.080Z,60.55
2018-02-08T08:51:17.561Z,55.75
2018-02-08T08:52:20.046Z,57.88
2018-02-08T08:53:22.529Z,60.83
2018-02-08T08:54:25.015Z,60.92
2018-02-08T08:55:27.596Z,54.72
2018-02-08T08:56:30.148Z,60.40
2018-02-08T08:57:32.652Z,54.38
2018-02-08T08:58:35.129Z,56.88
2018-02-08T08:59:37.598Z,66.28
2018-02-08T09:00:40.108Z,55.70
2018-02-08T09:01:42.593Z,75.60
2018-02-08T09:02:45.070Z,56.63
2018-02-08T09:03:47.664Z,54.13
2018-02-08T09:04:50.225Z,62.55
2018-02-08T09:05:52.722Z,63.78
2018-02-08T09:06:55.207Z,59.33
2018-02-08T09:07:57.694Z,61.60
2018-02-08T09:09:00.189Z,56.05
2018-02-08T09:10:02.679Z,60.63
2018-02-08T09:11:05.162Z,62.35
2018-02-08T09:12:07.659Z,52.38
2018-02-08T09:13:10.124Z,58.03
2018-02-08T09:14:12.604Z,66.85
2018-02-08T09:15:15.183Z,64.15
2018-02-08T09:16:17.676Z,63.72
2018-02-08T09:17:20.157Z,61.03
2018-02-08T09:18:22.774Z,63.97
2018-02-08T09:19:25.283Z,62.78
2018-02-08T09:20:27.764Z,61.55
2018-02-08T09:21:30.224Z,66.28
2018-02-08T09:22:32.694Z,66.30
2018-02-08T09:23:35.190Z,72.07
2018-02-08T09:24:37.690Z,61.85
2018-02-08T09:25:40.177Z,65.78
2018-02-08T09:26:42.649Z,70.32
2018-02-08T09:27:45.151Z,64.93
2018-02-08T09:28:47.642Z,68.00
2018-02-08T09:29:50.139Z,60.22
2018-02-08T09:30:52.794Z,65.62
2018-02-08T09:31:55.357Z,64.20
2018-02-08T09:32:57.836Z,65.90
2018-02-08T09:34:00.312Z,65.40
2018-02-08T09:35:02.927Z,69.72
2018-02-08T09:36:05.416Z,72.65
2018-02-08T09:37:07.909Z,68.70
2018-02-08T09:38:10.434Z,60.05
2018-02-08T09:39:12.896Z,73.75
2018-02-08T09:40:15.382Z,70.47
2018-02-08T09:41:17.850Z,86.93
2018-02-08T09:42:20.334Z,93.75
2018-02-08T09:43:22.826Z,75.82
2018-02-08T09:44:26.221Z,82.10
2018-02-08T09:45:32.746Z,72.60
2018-02-08T09:46:36.866Z,65.12
2018-02-08T09:47:39.334Z,66.87
2018-02-08T09:48:41.964Z,65.15
2018-02-08T09:49:44.447Z,70.72
2018-02-08T09:50:50.963Z,85.57
2018-02-08T09:51:54.251Z,96.97
2018-02-08T09:52:56.715Z,68.12
2018-02-08T09:53:59.193Z,77.82
2018-02-08T09:55:01.675Z,72.55
2018-02-08T09:56:04.143Z,74.10
2018-02-08T09:57:06.698Z,78.47
2018-02-08T09:58:09.148Z,67.75
2018-02-08T09:59:11.614Z,69.40
2018-02-08T10:00:14.085Z,75.43
2018-02-08T10:01:16.581Z,71.53
2018-02-08T10:02:19.063Z,71.07
2018-02-08T10:03:21.545Z,68.35
2018-02-08T10:04:24.062Z,78.28
2018-02-08T10:05:26.557Z,71.95
2018-02-08T10:06:29.031Z,75.37
2018-02-08T10:07:31.537Z,72.10
2018-02-08T10:08:34.002Z,73.20
2018-02-08T10:09:36.471Z,75.80
2018-02-08T10:10:38.947Z,64.75
2018-02-08T10:11:41.443Z,66.00
2018-02-08T10:12:43.923Z,66.45
2018-02-08T10:13:46.405Z,73.12
2018-02-08T10:14:48.886Z,67.50
2018-02-08T10:15:51.372Z,69.50
2018-02-08T10:16:53.862Z,63.72
2018-02-08T10:17:56.533Z,63.50
2018-02-08T10:18:59.050Z,70.70
2018-02-08T10:20:03.071Z,70.20
2018-02-08T10:21:06.203Z,69.80
2018-02-08T10:22:08.800Z,70.72
2018-02-08T10:23:11.299Z,79.18
2018-02-08T10:24:13.770Z,67.62
2018-02-08T10:25:16.249Z,68.22
2018-02-08T10:26:18.742Z,61.30
2018-02-08T10:27:21.230Z,69.03
2018-02-08T10:28:23.707Z,71.80
2018-02-08T10:29:26.194Z,67.78
2018-02-08T10:30:28.752Z,62.13
2018-02-08T10:31:31.238Z,67.80
2018-02-08T10:32:33.707Z,64.30
2018-02-08T10:33:36.180Z,77.10
2018-02-08T10:34:38.698Z,71.87
2018-02-08T10:35:41.377Z,68.53
2018-02-08T10:36:43.883Z,62.88
2018-02-08T10:37:46.406Z,68.37
2018-02-08T10:38:48.945Z,71.00
2018-02-08T10:39:51.437Z,66.47
2018-02-08T10:40:53.903Z,67.30
2018-02-08T10:41:56.366Z,65.03
2018-02-08T10:42:58.877Z,69.43
2018-02-08T10:44:01.354Z,69.28
2018-02-08T10:45:03.842Z,68.47
2018-02-08T10:46:06.412Z,67.78
2018-02-08T10:47:08.879Z,75.35
2018-02-08T10:48:11.386Z,75.10
2018-02-08T10:49:13.866Z,74.82
2018-02-08T10:50:16.402Z,76.03
2018-02-08T10:51:18.863Z,69.15
2018-02-08T10:52:21.376Z,75.57
2018-02-08T10:53:23.879Z,63.17
2018-02-08T10:54:26.377Z,71.30
2018-02-08T10:55:28.867Z,64.50
2018-02-08T10:56:31.463Z,71.35
2018-02-08T10:57:33.934Z,70.68
2018-02-08T10:58:36.425Z,98.32
2018-02-08T10:59:38.906Z,75.30
2018-02-08T11:00:41.384Z,74.60
2018-02-08T11:01:43.865Z,72.72
2018-02-08T11:02:46.345Z,74.53
2018-02-08T11:03:48.811Z,68.03
2018-02-08T11:04:51.307Z,71.57
2018-02-08T11:05:53.783Z,68.53
2018-02-08T11:06:56.273Z,78.10
2018-02-08T11:07:58.754Z,73.60
2018-02-08T11:09:01.227Z,71.60
2018-02-08T11:10:03.694Z,72.25
2018-02-08T11:11:06.181Z,84.15
2018-02-08T11:12:08.663Z,70.12
2018-02-08T11:13:11.150Z,73.30
2018-02-08T11:14:13.650Z,68.57
2018-02-08T11:15:16.143Z,65.57
2018-02-08T11:16:18.633Z,79.55
2018-02-08T11:17:21.104Z,79.90
2018-02-08T11:18:23.575Z,81.03
2018-02-08T11:19:26.049Z,70.78
2018-02-08T11:20:28.534Z,62.55
2018-02-08T11:21:31.013Z,76.75
2018-02-08T11:22:33.497Z,70.07
2018-02-08T11:23:35.981Z,71.60
2018-02-08T11:24:38.455Z,72.12
2018-02-08T11:25:40.937Z,68.30
2018-02-08T11:26:43.416Z,68.70
2018-02-08T11:27:45.909Z,70.57
2018-02-08T11:28:48.401Z,68.68
2018-02-08T11:29:50.888Z,72.00
2018-02-08T11:30:53.386Z,76.28
2018-02-08T11:31:55.854Z,69.87
2018-02-08T11:32:58.332Z,72.62
2018-02-08T11:34:00.824Z,71.22
2018-02-08T11:35:03.304Z,84.07
2018-02-08T11:36:05.782Z,81.15
2018-02-08T11:37:08.267Z,76.72
2018-02-08T11:38:10.743Z,84.97
2018-02-08T11:39:13.309Z,76.15
2018-02-08T11:40:15.881Z,88.22
2018-02-08T11:41:18.376Z,68.53
2018-02-08T11:42:20.864Z,89.97
2018-02-08T11:43:23.372Z,80.07
2018-02-08T11:44:25.905Z,68.55
2018-02-08T11:45:28.664Z,74.05
2018-02-08T11:46:31.164Z,79.85
2018-02-08T11:47:33.655Z,69.60
2018-02-08T11:48:36.141Z,71.12
2018-02-08T11:49:38.637Z,75.37
2018-02-08T11:50:41.123Z,69.55
2018-02-08T11:51:43.704Z,84.72
2018-02-08T11:52:46.174Z,72.20
2018-02-08T11:53:48.683Z,66.82
2018-02-08T11:54:51.168Z,86.15
2018-02-08T11:55:53.679Z,72.12
2018-02-08T11:56:56.849Z,85.25
2018-02-08T11:57:59.342Z,94.18
2018-02-08T11:59:01.850Z,78.90
2018-02-08T12:00:04.341Z,74.68
2018-02-08T12:01:06.837Z,71.60
2018-02-08T12:02:09.329Z,70.12
2018-02-08T12:03:11.929Z,75.15
2018-02-08T12:04:14.336Z,100.93
2018-02-08T12:05:16.835Z,80.82
2018-02-08T12:06:19.383Z,74.93
2018-02-08T12:07:21.901Z,74.12
2018-02-08T12:08:24.402Z,72.70
2018-02-08T12:09:26.896Z,72.40
2018-02-08T12:10:29.371Z,82.62
2018-02-08T12:11:31.853Z,87.20
2018-02-08T12:12:34.322Z,71.57
2018-02-08T12:13:36.842Z,73.60
2018-02-08T12:14:40.551Z,68.72
2018-02-08T12:15:43.044Z,71.78
2018-02-08T12:16:45.512Z,76.10
2018-02-08T12:17:47.982Z,66.45
2018-02-08T12:18:50.476Z,87.47
2018-02-08T12:19:52.959Z,79.22
2018-02-08T12:20:55.445Z,78.50
2018-02-08T12:21:57.944Z,79.87
2018-02-08T12:23:00.422Z,98.55
2018-02-08T12:24:02.921Z,94.82
2018-02-08T12:25:05.419Z,92.88
2018-02-08T12:26:07.919Z,92.53
2018-02-08T12:27:10.417Z,85.87
2018-02-08T12:28:12.916Z,78.00
2018-02-08T12:29:15.448Z,85.97
2018-02-08T12:30:17.927Z,87.47
2018-02-08T12:31:20.429Z,81.70
2018-02-08T12:32:22.919Z,73.03
2018-02-08T12:33:25.449Z,83.60
2018-02-08T12:34:27.961Z,81.87
2018-02-08T12:35:30.461Z,73.12
2018-02-08T12:36:32.956Z,102.12
2018-02-08T12:37:35.441Z,76.57
2018-02-08T12:38:37.950Z,103.68
2018-02-08T12:39:40.480Z,79.55
2018-02-08T12:40:42.960Z,82.30
2018-02-08T12:41:45.454Z,75.00
2018-02-08T12:42:47.933Z,77.72
2018-02-08T12:43:50.412Z,67.40
2018-02-08T12:44:52.921Z,79.68
2018-02-08T12:45:55.390Z,73.72
2018-02-08T12:46:57.875Z,71.55
2018-02-08T12:48:00.361Z,68.22
2018-02-08T12:49:02.852Z,72.05
2018-02-08T12:50:05.346Z,82.15
2018-02-08T12:51:07.831Z,76.10
2018-02-08T12:52:10.335Z,74.35
2018-02-08T12:53:12.824Z,75.60
2018-02-08T12:54:15.299Z,93.62
2018-02-08T12:55:17.810Z,71.62
2018-02-08T12:56:20.298Z,64.90
2018-02-08T12:57:22.778Z,65.93
2018-02-08T12:58:25.323Z,73.78
2018-02-08T12:59:27.799Z,65.57
2018-02-08T13:00:30.296Z,65.57
2018-02-08T13:01:32.791Z,72.60
2018-02-08T13:02:35.272Z,81.65
2018-02-08T13:03:37.755Z,66.62
2018-02-08T13:04:40.269Z,72.85
2018-02-08T13:05:42.864Z,80.00
2018-02-08T13:06:45.353Z,68.60
2018-02-08T13:07:47.840Z,70.35
2018-02-08T13:08:50.315Z,70.87
2018-02-08T13:09:52.788Z,64.62
2018-02-08T13:10:55.281Z,71.85
2018-02-08T13:11:57.779Z,86.12
2018-02-08T13:13:00.269Z,63.87
2018-02-08T13:14:02.734Z,73.22
2018-02-08T13:15:05.203Z,75.72
2018-02-08T13:16:07.716Z,76.03
2018-02-08T13:17:10.195Z,70.90
2018-02-08T13:18:12.732Z,86.20
2018-02-08T13:19:15.207Z,73.68
2018-02-08T13:20:17.750Z,72.18
2018-02-08T13:21:20.238Z,73.53
2018-02-08T13:22:22.721Z,79.93
2018-02-08T13:23:25.190Z,78.25
2018-02-08T13:24:27.668Z,77.75
2018-02-08T13:25:30.152Z,71.32
2018-02-08T13:26:32.680Z,87.37
2018-02-08T13:27:35.168Z,76.05
2018-02-08T13:28:37.673Z,73.82
2018-02-08T13:29:40.153Z,68.80
2018-02-08T13:30:42.622Z,82.80
2018-02-08T13:31:45.631Z,67.07
2018-02-08T13:32:48.098Z,65.57
2018-02-08T13:33:50.562Z,64.47
2018-02-08T13:34:53.057Z,69.75
2018-02-08T13:35:55.550Z,67.03
2018-02-08T13:36:58.065Z,60.67
2018-02-08T13:38:00.567Z,69.00
2018-02-08T13:39:03.035Z,61.55
2018-02-08T15:07:42.364Z,66.68
2018-02-08T15:08:44.849Z,62.70
2018-02-08T15:09:47.329Z,64.70
2018-02-08T15:10:49.820Z,56.42
2018-02-08T15:11:52.334Z,80.60
2018-02-08T15:12:54.807Z,73.30
2018-02-08T15:13:57.284Z,61.22
2018-02-08T15:14:59.774Z,68.15
2018-02-08T15:16:02.253Z,75.50
2018-02-08T15:17:04.748Z,64.57
2018-02-08T15:18:07.219Z,72.10
2018-02-08T15:19:09.707Z,78.50
2018-02-08T15:20:12.174Z,91.30
2018-02-08T15:21:14.644Z,69.82
2018-02-08T15:22:17.149Z,67.75
2018-02-08T15:23:19.645Z,75.75
2018-02-08T15:24:22.152Z,67.03
2018-02-08T15:25:24.631Z,63.95
2018-02-08T15:26:27.155Z,72.32
2018-02-08T15:27:29.659Z,77.07
2018-02-08T15:28:32.128Z,94.50
2018-02-08T15:29:34.617Z,67.22
2018-02-08T15:30:37.086Z,73.90
2018-02-08T15:31:39.568Z,67.12
2018-02-08T15:32:42.084Z,75.50
2018-02-08T15:33:44.574Z,67.97
2018-02-08T15:34:47.065Z,69.10